createdAt,value
2022-08-30T00:00:14.634Z,78.03
2022-08-30T00:01:25.895Z,78.12
2022-08-30T00:02:28.819Z,77.96
2022-08-30T00:03:33.969Z,78.40
2022-08-30T00:04:36.579Z,78.32
2022-08-30T00:05:39.038Z,78.40
2022-08-30T00:06:41.464Z,78.43
2022-08-30T00:07:43.765Z,78.38
2022-08-30T00:08:46.242Z,78.41
2022-08-30T00:09:48.737Z,78.48
2022-08-30T00:10:51.352Z,78.34
2022-08-30T00:11:53.625Z,78.52
2022-08-30T00:12:56.613Z,79.36
2022-08-30T00:13:59.262Z,79.84
2022-08-30T00:15:02.672Z,79.26
2022-08-30T00:16:06.267Z,79.01
2022-08-30T00:17:08.576Z,78.96
2022-08-30T00:18:10.997Z,78.80
2022-08-30T00:19:13.416Z,78.75
2022-08-30T00:20:19.675Z,79.56
2022-08-30T00:21:22.858Z,79.49
2022-08-30T00:22:25.009Z,79.86
2022-08-30T00:23:27.308Z,79.86
2022-08-30T00:24:30.270Z,79.61
2022-08-30T00:25:32.689Z,79.56
2022-08-30T00:26:35.727Z,79.58
2022-08-30T00:27:38.902Z,79.52
2022-08-30T00:28:41.164Z,79.57
2022-08-30T00:29:43.401Z,79.66
2022-08-30T00:30:46.997Z,79.81
2022-08-30T00:31:49.750Z,80.73
2022-08-30T00:32:52.009Z,81.14
2022-08-30T00:33:54.356Z,81.11
2022-08-30T00:34:57.048Z,80.80
2022-08-30T00:36:00.198Z,80.68
2022-08-30T00:37:02.671Z,81.04
2022-08-30T00:38:05.732Z,81.15
2022-08-30T00:39:08.053Z,80.95
2022-08-30T00:40:11.782Z,80.82
2022-08-30T00:41:14.201Z,80.90
2022-08-30T00:42:18.498Z,81.41
2022-08-30T00:43:24.344Z,81.51
2022-08-30T00:44:28.675Z,81.99
2022-08-30T00:45:33.776Z,81.83
2022-08-30T00:46:36.347Z,81.72
2022-08-30T00:47:38.901Z,82.21
2022-08-30T00:48:44.488Z,81.87
2022-08-30T00:49:50.819Z,81.96
2022-08-30T00:52:06.967Z,82.19
2022-08-30T00:53:12.952Z,81.81
2022-08-30T00:54:16.289Z,81.83
2022-08-30T00:55:20.449Z,83.09
2022-08-30T00:56:25.186Z,82.91
2022-08-30T00:57:27.754Z,82.47
2022-08-30T00:58:36.474Z,82.25
2022-08-30T00:59:39.315Z,82.24
2022-08-30T01:00:41.980Z,81.97
2022-08-30T01:01:44.928Z,82.33
2022-08-30T01:02:47.669Z,82.18
2022-08-30T01:03:52.506Z,81.95
2022-08-30T01:04:55.021Z,83.31
2022-08-30T01:05:58.328Z,82.97
2022-08-30T01:07:00.895Z,82.99
2022-08-30T01:08:04.049Z,82.80
2022-08-30T01:09:07.986Z,82.46
2022-08-30T01:10:12.806Z,82.39
2022-08-30T01:11:18.821Z,82.68
2022-08-30T01:12:21.396Z,82.79
2022-08-30T01:13:26.395Z,82.67
2022-08-30T01:14:28.857Z,82.75
2022-08-30T01:15:32.617Z,82.77
2022-08-30T01:16:36.356Z,82.46
2022-08-30T01:17:38.985Z,83.62
2022-08-30T01:18:43.903Z,84.00
2022-08-30T01:19:50.798Z,83.46
2022-08-30T01:22:28.177Z,82.89
2022-08-30T01:23:32.608Z,82.89
2022-08-30T01:24:35.108Z,83.21
2022-08-30T01:25:38.359Z,82.85
2022-08-30T01:26:41.181Z,82.83
2022-08-30T01:27:46.978Z,82.78
2022-08-30T01:28:52.926Z,82.65
2022-08-30T01:29:57.546Z,82.57
2022-08-30T01:31:00.105Z,82.75
2022-08-30T01:32:05.460Z,82.75
2022-08-30T01:33:09.060Z,82.72
2022-08-30T01:34:12.991Z,83.20
2022-08-30T01:35:17.902Z,83.31
2022-08-30T01:36:21.197Z,83.17
2022-08-30T01:37:27.021Z,82.97
2022-08-30T01:38:54.326Z,83.05
2022-08-30T01:39:56.827Z,83.41
2022-08-30T01:41:02.493Z,83.79
2022-08-30T01:42:05.503Z,83.82
2022-08-30T01:43:09.388Z,83.67
2022-08-30T01:44:12.948Z,83.96
2022-08-30T01:45:15.462Z,83.77
2022-08-30T01:46:22.119Z,84.06
2022-08-30T01:47:24.905Z,83.86
2022-08-30T01:48:30.873Z,84.13
2022-08-30T01:49:31.791Z,83.84
2022-08-30T01:50:35.126Z,84.92
2022-08-30T01:51:39.966Z,84.91
2022-08-30T01:52:42.359Z,84.71
2022-08-30T01:53:45.112Z,84.79
2022-08-30T01:54:47.782Z,84.77
2022-08-30T01:55:50.110Z,85.59
2022-08-30T01:56:52.341Z,85.57
2022-08-30T01:57:54.875Z,85.27
2022-08-30T01:59:02.681Z,85.51
2022-08-30T02:00:06.795Z,85.19
2022-08-30T02:01:12.202Z,85.39
2022-08-30T02:02:17.730Z,85.58
2022-08-30T02:03:20.339Z,85.60
2022-08-30T02:04:23.179Z,86.46
2022-08-30T02:05:25.636Z,87.73
2022-08-30T02:06:28.115Z,87.73
2022-08-30T02:07:30.648Z,87.55
2022-08-30T02:08:34.474Z,87.62
2022-08-30T02:09:37.093Z,87.51
2022-08-30T02:10:39.606Z,86.98
2022-08-30T02:11:42.189Z,86.99
2022-08-30T02:12:44.229Z,86.97
2022-08-30T02:13:47.207Z,86.96
2022-08-30T02:14:50.058Z,86.80
2022-08-30T02:15:52.406Z,86.66
2022-08-30T02:16:55.007Z,86.30
2022-08-30T02:17:57.440Z,86.59
2022-08-30T02:19:02.767Z,86.55
2022-08-30T02:20:06.896Z,86.55
2022-08-30T02:21:10.108Z,86.50
2022-08-30T02:22:12.716Z,86.72
2022-08-30T02:23:15.299Z,86.65
2022-08-30T02:24:17.765Z,86.93
2022-08-30T02:25:20.841Z,86.93
2022-08-30T02:26:24.310Z,87.01
2022-08-30T02:27:27.026Z,87.07
2022-08-30T02:28:29.252Z,87.32
2022-08-30T02:29:31.826Z,87.45
2022-08-30T02:30:35.059Z,87.39
2022-08-30T02:31:37.591Z,87.49
2022-08-30T02:32:39.755Z,86.98
2022-08-30T02:33:42.083Z,87.63
2022-08-30T02:34:44.793Z,87.63
2022-08-30T02:35:47.159Z,87.57
2022-08-30T02:36:49.749Z,87.63
2022-08-30T02:37:52.003Z,88.27
2022-08-30T02:38:54.248Z,88.15
2022-08-30T02:39:56.569Z,88.14
2022-08-30T02:40:59.441Z,88.57
2022-08-30T02:42:01.635Z,88.28
2022-08-30T02:43:04.247Z,88.41
2022-08-30T02:44:07.637Z,89.03
2022-08-30T02:45:10.931Z,89.01
2022-08-30T02:46:14.080Z,88.81
2022-08-30T02:47:16.503Z,88.87
2022-08-30T02:48:19.184Z,88.98
2022-08-30T02:49:36.982Z,89.47
2022-08-30T02:50:26.149Z,89.50
2022-08-30T02:51:28.513Z,89.48
2022-08-30T02:52:31.600Z,90.14
2022-08-30T02:53:34.301Z,90.40
2022-08-30T02:54:36.597Z,90.24
2022-08-30T02:55:38.896Z,90.41
2022-08-30T02:56:41.350Z,91.06
2022-08-30T02:57:43.724Z,91.75
2022-08-30T02:58:46.388Z,92.04
2022-08-30T02:59:49.221Z,92.00
2022-08-30T03:00:51.786Z,91.81
2022-08-30T03:01:55.184Z,91.70
2022-08-30T03:02:59.708Z,91.62
2022-08-30T03:04:01.967Z,93.21
2022-08-30T03:05:04.945Z,92.65
2022-08-30T03:06:08.124Z,92.70
2022-08-30T03:07:11.024Z,92.08
2022-08-30T03:08:13.346Z,92.06
2022-08-30T03:09:15.762Z,91.57
2022-08-30T03:10:19.852Z,91.35
2022-08-30T03:11:22.126Z,91.29
2022-08-30T03:12:26.414Z,91.45
2022-08-30T03:13:29.507Z,91.23
2022-08-30T03:14:32.750Z,91.42
2022-08-30T03:15:37.755Z,91.90
2022-08-30T03:16:40.367Z,92.57
2022-08-30T03:17:43.100Z,92.53
2022-08-30T03:18:45.436Z,92.79
2022-08-30T03:19:47.850Z,93.04
2022-08-30T03:20:54.274Z,92.64
2022-08-30T03:21:55.637Z,92.76
2022-08-30T03:22:58.027Z,92.05
2022-08-30T03:24:00.336Z,92.29
2022-08-30T03:25:04.046Z,92.81
2022-08-30T03:26:10.345Z,92.51
2022-08-30T03:27:12.906Z,93.69
2022-08-30T03:28:15.277Z,93.76
2022-08-30T03:29:17.642Z,93.74
2022-08-30T03:30:20.445Z,94.28
2022-08-30T03:31:22.906Z,94.30
2022-08-30T03:32:25.365Z,94.99
2022-08-30T03:33:27.625Z,94.90
2022-08-30T03:34:29.913Z,94.49
2022-08-30T03:35:33.241Z,94.00
2022-08-30T03:36:37.176Z,95.09
2022-08-30T03:37:40.116Z,95.58
2022-08-30T03:38:42.422Z,95.24
2022-08-30T03:39:44.837Z,94.71
2022-08-30T03:40:47.208Z,94.10
2022-08-30T03:41:50.233Z,94.69
2022-08-30T03:42:54.356Z,94.32
2022-08-30T03:44:00.125Z,94.13
2022-08-30T03:45:00.810Z,94.30
2022-08-30T03:46:03.526Z,94.56
2022-08-30T03:47:06.608Z,94.68
2022-08-30T03:48:09.057Z,94.40
2022-08-30T03:49:11.824Z,93.75
2022-08-30T03:50:15.593Z,93.77
2022-08-30T03:51:18.403Z,93.92
2022-08-30T03:52:20.831Z,95.49
2022-08-30T03:53:25.623Z,95.14
2022-08-30T03:54:27.535Z,94.78
2022-08-30T03:55:29.882Z,94.48
2022-08-30T03:56:33.076Z,94.36
2022-08-30T03:57:36.615Z,94.88
2022-08-30T03:58:39.239Z,95.93
2022-08-30T03:59:41.354Z,95.39
2022-08-30T04:00:43.908Z,95.23
2022-08-30T04:01:46.916Z,94.61
2022-08-30T04:02:49.805Z,95.72
2022-08-30T04:03:52.100Z,95.72
2022-08-30T04:04:54.366Z,95.09
2022-08-30T04:05:56.968Z,95.28
2022-08-30T04:06:59.721Z,94.81
2022-08-30T04:08:03.076Z,94.68
2022-08-30T04:09:07.144Z,94.07
2022-08-30T04:10:10.622Z,94.10
2022-08-30T04:11:13.156Z,93.67
2022-08-30T04:12:18.452Z,94.16
2022-08-30T04:13:20.726Z,94.51
2022-08-30T04:14:23.092Z,95.05
2022-08-30T04:15:25.424Z,95.58
2022-08-30T04:16:28.497Z,96.21
2022-08-30T04:17:31.272Z,96.67
2022-08-30T04:18:33.470Z,96.58
2022-08-30T04:19:35.797Z,96.36
2022-08-30T04:20:38.719Z,95.98
2022-08-30T04:21:42.996Z,96.48
2022-08-30T04:22:45.333Z,95.63
2022-08-30T04:23:47.473Z,96.26
2022-08-30T04:24:49.960Z,95.43
2022-08-30T04:25:52.328Z,95.05
2022-08-30T04:26:54.788Z,95.02
2022-08-30T04:27:57.148Z,95.39
2022-08-30T04:28:59.137Z,94.47
2022-08-30T04:30:01.770Z,94.22
2022-08-30T04:31:13.574Z,93.70
2022-08-30T04:32:17.866Z,94.54
2022-08-30T04:33:20.572Z,95.93
2022-08-30T04:34:23.066Z,96.57
2022-08-30T04:35:26.278Z,96.21
2022-08-30T04:36:29.157Z,96.55
2022-08-30T04:37:31.445Z,97.59
2022-08-30T04:38:36.127Z,96.71
2022-08-30T04:39:39.212Z,96.67
2022-08-30T04:40:46.624Z,96.88
2022-08-30T04:41:49.426Z,96.50
2022-08-30T04:42:52.084Z,96.04
2022-08-30T04:43:54.698Z,95.63
2022-08-30T04:44:58.271Z,95.37
2022-08-30T04:46:04.209Z,95.49
2022-08-30T04:47:06.795Z,95.54
2022-08-30T04:48:09.141Z,95.46
2022-08-30T04:49:11.490Z,96.67
2022-08-30T04:50:17.065Z,97.05
2022-08-30T04:51:19.831Z,96.14
2022-08-30T04:52:22.246Z,96.24
2022-08-30T04:53:24.642Z,96.47
2022-08-30T04:54:27.152Z,95.98
2022-08-30T04:55:29.524Z,95.69
2022-08-30T04:56:32.263Z,95.86
2022-08-30T04:57:34.828Z,95.51
2022-08-30T04:58:37.526Z,95.52
2022-08-30T04:59:39.818Z,95.66
2022-08-30T05:00:44.188Z,95.64
2022-08-30T05:01:47.534Z,96.38
2022-08-30T05:02:50.432Z,96.45
2022-08-30T05:03:54.334Z,98.01
2022-08-30T05:04:56.829Z,99.33
2022-08-30T05:05:59.324Z,100.00
2022-08-30T05:07:01.802Z,100.00
2022-08-30T05:08:03.965Z,98.91
2022-08-30T05:09:06.237Z,98.03
2022-08-30T05:10:11.527Z,98.14
2022-08-30T05:11:15.803Z,98.55
2022-08-30T05:12:18.159Z,97.90
2022-08-30T05:13:21.135Z,97.27
2022-08-30T05:14:25.410Z,97.11
2022-08-30T05:15:27.825Z,97.24
2022-08-30T05:16:30.312Z,98.16
2022-08-30T05:17:32.835Z,97.46
2022-08-30T05:18:35.999Z,97.55
2022-08-30T05:19:38.461Z,96.92
2022-08-30T05:20:41.840Z,96.16
2022-08-30T05:21:44.135Z,95.94
2022-08-30T05:22:46.713Z,95.13
2022-08-30T05:23:50.365Z,95.25
2022-08-30T05:24:52.792Z,96.32
2022-08-30T05:25:55.161Z,96.02
2022-08-30T05:26:58.356Z,95.15
2022-08-30T05:28:00.635Z,94.53
2022-08-30T05:29:02.930Z,93.81
2022-08-30T05:30:06.277Z,93.99
2022-08-30T05:31:20.339Z,94.03
2022-08-30T05:32:22.936Z,93.55
2022-08-30T05:33:25.863Z,93.41
2022-08-30T05:34:29.879Z,93.05
2022-08-30T05:35:32.326Z,92.69
2022-08-30T05:36:37.480Z,92.17
2022-08-30T05:37:40.736Z,91.73
2022-08-30T05:38:44.415Z,91.57
2022-08-30T05:39:51.749Z,92.67
2022-08-30T05:40:52.990Z,91.70
2022-08-30T05:41:57.227Z,91.15
2022-08-30T05:43:00.132Z,90.67
2022-08-30T05:44:04.396Z,90.70
2022-08-30T05:45:08.080Z,90.29
2022-08-30T05:46:13.322Z,90.68
2022-08-30T05:47:15.627Z,90.19
2022-08-30T05:48:18.414Z,89.49
2022-08-30T05:49:20.960Z,90.19
2022-08-30T05:50:25.421Z,89.15
2022-08-30T05:51:29.593Z,89.02
2022-08-30T05:53:49.453Z,90.11
2022-08-30T05:54:54.186Z,90.03
2022-08-30T05:55:56.792Z,89.21
2022-08-30T05:56:59.525Z,89.74
2022-08-30T05:58:01.868Z,89.53
2022-08-30T05:59:06.066Z,89.82
2022-08-30T06:00:12.232Z,90.66
2022-08-30T06:01:24.357Z,90.53
2022-08-30T06:02:27.200Z,90.16
2022-08-30T06:03:29.664Z,91.04
2022-08-30T06:04:32.154Z,90.82
2022-08-30T06:05:36.430Z,90.95
2022-08-30T06:06:40.795Z,89.92
2022-08-30T06:07:43.107Z,87.95
2022-08-30T06:08:45.824Z,87.20
2022-08-30T06:09:48.232Z,86.29
2022-08-30T06:10:50.858Z,85.85
2022-08-30T06:11:53.240Z,85.80
2022-08-30T06:12:55.425Z,85.43
2022-08-30T06:13:57.676Z,85.55
2022-08-30T06:14:59.857Z,85.13
2022-08-30T06:16:03.183Z,84.42
2022-08-30T06:17:06.348Z,83.01
2022-08-30T06:18:09.094Z,81.50
2022-08-30T06:19:13.168Z,80.77
2022-08-30T06:20:16.272Z,79.92
2022-08-30T06:21:24.763Z,80.06
2022-08-30T06:22:27.216Z,80.44
2022-08-30T06:23:29.493Z,80.44
2022-08-30T06:24:54.010Z,78.84
2022-08-30T06:25:41.117Z,76.80
2022-08-30T06:26:44.872Z,76.98
2022-08-30T06:27:47.545Z,76.32
2022-08-30T06:28:50.210Z,77.22
2022-08-30T06:29:53.088Z,77.22
2022-08-30T06:30:55.950Z,75.49
2022-08-30T06:31:58.444Z,74.51
2022-08-30T06:33:01.207Z,75.12
2022-08-30T06:34:04.648Z,76.06
2022-08-30T06:35:08.687Z,75.94
2022-08-30T06:36:14.885Z,76.01
2022-08-30T06:37:24.684Z,76.45
2022-08-30T06:38:21.517Z,74.04
2022-08-30T06:39:23.838Z,72.20
2022-08-30T06:40:28.019Z,73.23
2022-08-30T06:41:33.044Z,73.23
2022-08-30T06:42:35.540Z,71.92
2022-08-30T06:43:37.862Z,70.44
2022-08-30T06:44:40.113Z,69.72
2022-08-30T06:45:44.490Z,69.87
2022-08-30T06:46:47.133Z,71.72
2022-08-30T06:47:49.506Z,71.12
2022-08-30T06:48:52.852Z,70.75
2022-08-30T06:49:57.873Z,70.46
2022-08-30T06:51:01.069Z,71.65
2022-08-30T06:52:03.478Z,72.14
2022-08-30T06:53:05.932Z,73.08
2022-08-30T06:54:11.999Z,72.04
2022-08-30T06:55:16.268Z,73.39
2022-08-30T06:56:19.876Z,72.86
2022-08-30T06:57:26.479Z,71.97
2022-08-30T06:58:30.209Z,70.19
2022-08-30T06:59:32.485Z,69.64
2022-08-30T07:00:35.166Z,68.07
2022-08-30T07:01:39.387Z,67.00
2022-08-30T07:02:42.497Z,68.09
2022-08-30T07:03:44.791Z,66.53
2022-08-30T07:04:47.079Z,65.12
2022-08-30T07:05:49.961Z,64.34
2022-08-30T07:06:52.644Z,66.78
2022-08-30T07:07:54.952Z,68.03
2022-08-30T07:08:57.447Z,67.14
2022-08-30T07:10:03.322Z,68.83
2022-08-30T07:11:06.838Z,69.30
2022-08-30T07:12:10.434Z,68.16
2022-08-30T07:13:13.013Z,66.54
2022-08-30T07:14:16.805Z,66.90
2022-08-30T07:15:19.111Z,67.68
2022-08-30T07:16:21.694Z,67.77
2022-08-30T07:17:24.089Z,67.00
2022-08-30T07:18:26.441Z,65.68
2022-08-30T07:19:28.608Z,65.11
2022-08-30T07:20:39.793Z,66.72
2022-08-30T07:21:39.107Z,65.89
2022-08-30T07:22:41.780Z,66.07
2022-08-30T07:23:49.249Z,66.45
2022-08-30T07:24:51.160Z,66.49
2022-08-30T07:25:53.421Z,65.45
2022-08-30T07:26:55.935Z,66.24
2022-08-30T07:27:58.306Z,65.74
2022-08-30T07:29:01.371Z,65.32
2022-08-30T07:30:06.610Z,64.41
2022-08-30T07:31:12.680Z,63.84
2022-08-30T07:32:14.866Z,64.43
2022-08-30T07:33:17.247Z,64.73
2022-08-30T07:34:20.608Z,64.01
2022-08-30T07:35:23.863Z,63.77
2022-08-30T07:36:26.398Z,63.85
2022-08-30T07:37:28.687Z,63.45
2022-08-30T07:38:31.541Z,62.96
2022-08-30T07:39:39.179Z,62.27
2022-08-30T07:40:39.152Z,63.18
2022-08-30T07:41:41.599Z,62.49
2022-08-30T07:42:44.226Z,61.80
2022-08-30T07:43:47.658Z,60.57
2022-08-30T07:44:51.834Z,60.51
2022-08-30T07:45:54.016Z,62.11
2022-08-30T07:46:56.698Z,61.05
2022-08-30T07:47:58.999Z,60.89
2022-08-30T07:49:01.995Z,60.43
2022-08-30T07:50:07.851Z,59.71
2022-08-30T07:51:12.937Z,60.22
2022-08-30T07:52:15.065Z,60.66
2022-08-30T07:53:17.384Z,60.86
2022-08-30T07:54:19.877Z,60.39
2022-08-30T07:55:22.195Z,59.98
2022-08-30T07:56:26.126Z,59.86
2022-08-30T07:57:28.484Z,59.74
2022-08-30T07:58:32.534Z,58.94
2022-08-30T07:59:36.225Z,57.56
2022-08-30T08:00:38.857Z,57.26
2022-08-30T08:01:41.203Z,57.18
2022-08-30T08:02:44.207Z,56.72
2022-08-30T08:03:46.872Z,56.26
2022-08-30T08:04:49.135Z,55.72
2022-08-30T08:05:51.856Z,56.01
2022-08-30T08:06:54.171Z,57.48
2022-08-30T08:07:56.561Z,57.83
2022-08-30T08:08:58.931Z,57.98
2022-08-30T08:10:01.881Z,57.88
2022-08-30T08:11:16.075Z,57.75
2022-08-30T08:12:18.760Z,57.33
2022-08-30T08:13:21.274Z,56.56
2022-08-30T08:14:23.491Z,56.41
2022-08-30T08:15:27.499Z,55.93
2022-08-30T08:16:32.486Z,55.37
2022-08-30T08:17:34.824Z,55.95
2022-08-30T08:18:37.560Z,56.57
2022-08-30T08:19:40.074Z,55.72
2022-08-30T08:20:44.331Z,55.27
2022-08-30T08:21:46.739Z,54.66
2022-08-30T08:22:49.296Z,53.89
2022-08-30T08:23:51.632Z,55.25
2022-08-30T08:24:53.998Z,55.72
2022-08-30T08:25:56.623Z,55.04
2022-08-30T08:26:59.594Z,55.17
2022-08-30T08:28:02.099Z,54.90
2022-08-30T08:29:06.710Z,54.20
2022-08-30T08:30:10.158Z,53.86
2022-08-30T08:31:16.262Z,54.47
2022-08-30T08:32:18.921Z,54.50
2022-08-30T08:33:23.428Z,54.54
2022-08-30T08:34:26.225Z,54.56
2022-08-30T08:35:29.179Z,54.01
2022-08-30T08:36:32.938Z,52.81
2022-08-30T08:37:35.688Z,53.25
2022-08-30T08:38:37.929Z,52.52
2022-08-30T08:39:40.900Z,52.39
2022-08-30T08:40:50.041Z,51.83
2022-08-30T08:42:24.364Z,52.05
2022-08-30T08:43:27.233Z,51.80
2022-08-30T08:44:42.246Z,54.97
2022-08-30T08:46:15.743Z,53.97
2022-08-30T08:47:37.860Z,52.93
2022-08-30T08:48:59.461Z,52.92
2022-08-30T08:49:54.041Z,52.05
2022-08-30T08:51:00.719Z,51.48
2022-08-30T08:52:04.716Z,51.37
2022-08-30T08:53:20.614Z,51.75
2022-08-30T08:54:33.635Z,51.35
2022-08-30T08:55:39.611Z,50.88
2022-08-30T08:56:42.215Z,50.79
2022-08-30T08:57:44.637Z,50.75
2022-08-30T08:58:53.036Z,50.24
2022-08-30T08:59:55.467Z,50.73
2022-08-30T09:00:58.664Z,50.30
2022-08-30T09:02:03.481Z,49.46
2022-08-30T09:03:07.597Z,49.89
2022-08-30T09:04:20.843Z,50.69
2022-08-30T09:05:26.259Z,50.38
2022-08-30T09:06:49.286Z,50.11
2022-08-30T09:07:57.866Z,50.37
2022-08-30T09:09:00.423Z,50.50
2022-08-30T09:10:04.112Z,49.66
2022-08-30T09:11:07.494Z,49.88
2022-08-30T09:12:11.746Z,49.27
2022-08-30T09:13:14.169Z,48.76
2022-08-30T09:15:54.718Z,48.23
2022-08-30T09:17:07.781Z,46.93
2022-08-30T09:18:18.938Z,47.37
2022-08-30T09:19:37.237Z,46.26
2022-08-30T09:20:43.231Z,46.48
2022-08-30T09:21:49.961Z,47.54
2022-08-30T09:22:54.913Z,47.07
2022-08-30T09:24:00.742Z,46.69
2022-08-30T09:25:25.042Z,46.99
2022-08-30T09:27:43.872Z,48.32
2022-08-30T09:28:50.558Z,48.11
2022-08-30T09:31:22.121Z,47.63
2022-08-30T09:32:32.193Z,47.88
2022-08-30T09:33:34.595Z,48.08
2022-08-30T09:34:36.972Z,48.54
2022-08-30T09:35:46.137Z,48.01
2022-08-30T09:36:53.767Z,47.44
2022-08-30T09:37:59.247Z,45.57
2022-08-30T09:39:05.448Z,45.29
2022-08-30T09:40:15.034Z,44.75
2022-08-30T09:41:39.114Z,46.29
2022-08-30T09:42:46.440Z,47.43
2022-08-30T09:44:09.099Z,47.24
2022-08-30T09:45:21.110Z,48.57
2022-08-30T09:46:25.313Z,48.23
2022-08-30T09:47:31.383Z,47.60
2022-08-30T09:48:37.879Z,46.21
2022-08-30T09:49:44.698Z,45.79
2022-08-30T09:50:50.587Z,46.32
2022-08-30T09:52:19.704Z,46.46
2022-08-30T09:53:25.462Z,46.06
2022-08-30T09:54:34.426Z,46.03
2022-08-30T09:55:58.125Z,45.77
2022-08-30T09:57:11.635Z,45.33
2022-08-30T09:58:31.772Z,46.38
2022-08-30T09:59:40.597Z,47.14
2022-08-30T10:00:52.534Z,47.62
2022-08-30T10:02:15.435Z,48.33
2022-08-30T10:03:36.183Z,48.50
2022-08-30T10:04:39.665Z,47.65
2022-08-30T10:06:07.118Z,46.70
2022-08-30T10:08:41.934Z,45.42
2022-08-30T10:09:55.699Z,44.04
2022-08-30T10:11:20.026Z,44.21
2022-08-30T10:12:37.443Z,43.81
2022-08-30T10:14:08.023Z,44.80
2022-08-30T10:15:23.014Z,45.28
2022-08-30T10:16:46.876Z,45.02
2022-08-30T10:17:56.398Z,45.16
2022-08-30T10:19:09.625Z,45.78
2022-08-30T10:20:13.650Z,46.00
2022-08-30T10:21:20.715Z,45.04
2022-08-30T10:22:26.145Z,45.05
2022-08-30T10:23:30.028Z,44.99
2022-08-30T10:24:34.388Z,44.73
2022-08-30T10:25:38.556Z,44.94
2022-08-30T10:26:45.096Z,44.67
2022-08-30T10:27:56.068Z,44.87
2022-08-30T10:29:00.417Z,44.51
2022-08-30T10:30:07.838Z,44.77
2022-08-30T10:31:12.185Z,44.57
2022-08-30T10:32:16.071Z,44.35
2022-08-30T10:33:19.938Z,44.28
2022-08-30T10:34:29.674Z,45.55
2022-08-30T10:35:42.594Z,45.58
2022-08-30T10:36:54.021Z,45.52
2022-08-30T10:38:09.953Z,45.40
2022-08-30T10:39:14.902Z,45.29
2022-08-30T10:40:19.171Z,45.61
2022-08-30T10:41:27.652Z,45.37
2022-08-30T10:42:31.751Z,46.02
2022-08-30T10:43:38.683Z,46.75
2022-08-30T10:44:45.204Z,46.52
2022-08-30T10:45:48.654Z,46.04
2022-08-30T10:47:09.640Z,45.85
2022-08-30T10:48:25.835Z,45.74
2022-08-30T10:49:29.631Z,46.03
2022-08-30T10:50:38.432Z,45.75
2022-08-30T10:51:51.555Z,45.42
2022-08-30T10:52:58.584Z,45.31
2022-08-30T10:54:08.179Z,45.36
2022-08-30T10:55:16.673Z,46.19
2022-08-30T10:56:20.983Z,46.16
2022-08-30T10:57:24.035Z,45.99
2022-08-30T10:58:28.186Z,46.14
2022-08-30T10:59:31.040Z,46.24
2022-08-30T11:02:05.766Z,47.11
2022-08-30T11:03:12.876Z,47.29
2022-08-30T11:04:20.218Z,46.45
2022-08-30T11:05:30.337Z,46.03
2022-08-30T11:06:34.550Z,46.46
2022-08-30T11:07:52.270Z,46.39
2022-08-30T11:08:56.166Z,46.44
2022-08-30T11:09:59.942Z,46.83
2022-08-30T11:11:03.656Z,46.30
2022-08-30T11:12:23.136Z,46.15
2022-08-30T11:13:27.879Z,46.09
2022-08-30T11:14:30.179Z,45.91
2022-08-30T11:15:34.227Z,46.20
2022-08-30T11:16:38.896Z,46.27
2022-08-30T11:17:42.756Z,46.46
2022-08-30T11:18:51.123Z,46.48
2022-08-30T11:19:55.278Z,47.34
2022-08-30T11:21:17.722Z,47.05
2022-08-30T11:22:24.329Z,46.53
2022-08-30T11:23:29.020Z,46.03
2022-08-30T11:24:33.810Z,45.51
2022-08-30T11:25:46.988Z,45.28
2022-08-30T11:26:52.999Z,45.44
2022-08-30T11:27:55.703Z,45.28
2022-08-30T11:28:59.914Z,45.39
2022-08-30T11:30:03.891Z,45.54
2022-08-30T11:31:10.683Z,45.79
2022-08-30T11:32:14.754Z,46.22
2022-08-30T11:33:24.394Z,46.25
2022-08-30T11:34:46.336Z,46.01
2022-08-30T11:35:50.579Z,46.01
2022-08-30T11:36:54.934Z,45.72
2022-08-30T11:37:57.206Z,45.73
2022-08-30T11:39:01.367Z,46.53
2022-08-30T11:40:05.295Z,47.04
2022-08-30T11:41:09.487Z,47.07
2022-08-30T11:42:14.659Z,46.49
2022-08-30T11:43:21.158Z,46.20
2022-08-30T11:44:26.863Z,45.67
2022-08-30T11:45:31.301Z,45.36
2022-08-30T11:46:35.817Z,45.50
2022-08-30T11:47:39.680Z,44.93
2022-08-30T11:48:53.505Z,44.95
2022-08-30T11:49:55.660Z,45.52
2022-08-30T11:50:59.575Z,45.43
2022-08-30T11:52:27.741Z,45.37
2022-08-30T11:53:15.130Z,45.43
2022-08-30T11:54:36.110Z,45.36
2022-08-30T11:55:49.593Z,45.62
2022-08-30T11:56:54.604Z,45.29
2022-08-30T11:58:18.265Z,45.41
2022-08-30T11:59:22.411Z,44.83
2022-08-30T12:00:29.963Z,44.28
2022-08-30T12:01:51.116Z,44.65
2022-08-30T12:02:40.999Z,44.41
2022-08-30T12:03:43.525Z,44.58
2022-08-30T12:04:46.480Z,44.42
2022-08-30T12:06:02.502Z,44.56
2022-08-30T12:07:06.417Z,44.90
2022-08-30T12:08:24.205Z,45.59
2022-08-30T12:09:28.565Z,45.38
2022-08-30T12:10:39.267Z,45.09
2022-08-30T12:11:52.591Z,45.18
2022-08-30T12:12:55.256Z,45.05
2022-08-30T12:13:57.596Z,45.22
2022-08-30T12:14:59.588Z,45.05
2022-08-30T12:16:03.428Z,44.65
2022-08-30T12:17:16.104Z,44.59
2022-08-30T12:18:20.116Z,44.49
2022-08-30T12:19:22.996Z,44.33
2022-08-30T12:20:30.503Z,44.17
2022-08-30T12:21:43.854Z,44.02
2022-08-30T12:22:38.366Z,43.69
2022-08-30T12:23:57.257Z,43.57
2022-08-30T12:24:59.177Z,43.75
2022-08-30T12:26:12.796Z,43.49
2022-08-30T12:27:26.096Z,43.49
2022-08-30T12:28:28.175Z,43.67
2022-08-30T12:29:30.623Z,44.05
2022-08-30T12:30:34.807Z,44.17
2022-08-30T12:31:44.491Z,44.09
2022-08-30T12:32:47.506Z,44.53
2022-08-30T12:33:56.577Z,44.98
2022-08-30T12:35:01.504Z,44.69
2022-08-30T12:36:05.999Z,44.68
2022-08-30T12:37:09.686Z,44.40
2022-08-30T12:38:13.863Z,44.62
2022-08-30T12:39:17.726Z,44.48
2022-08-30T12:40:22.059Z,44.39
2022-08-30T12:41:24.245Z,44.42
2022-08-30T12:42:28.273Z,44.03
2022-08-30T12:43:38.771Z,44.04
2022-08-30T12:44:35.922Z,44.02
2022-08-30T12:45:39.862Z,44.09
2022-08-30T12:46:43.886Z,44.42
2022-08-30T12:47:50.507Z,44.52
2022-08-30T12:48:53.105Z,44.58
2022-08-30T12:49:55.883Z,44.57
2022-08-30T12:50:58.845Z,44.20
2022-08-30T12:52:19.643Z,44.23
2022-08-30T12:53:23.756Z,44.13
2022-08-30T12:54:27.759Z,44.36
2022-08-30T12:55:31.535Z,44.35
2022-08-30T12:56:49.866Z,44.33
2022-08-30T12:58:00.531Z,44.60
2022-08-30T12:59:00.340Z,44.38
2022-08-30T13:00:04.082Z,44.62
2022-08-30T13:01:17.606Z,44.84
2022-08-30T13:02:22.542Z,44.76
2022-08-30T13:03:35.461Z,44.76
2022-08-30T13:04:37.648Z,44.83
2022-08-30T13:05:45.492Z,44.94
2022-08-30T13:06:50.871Z,44.93
2022-08-30T13:07:54.762Z,44.57
2022-08-30T13:08:56.831Z,44.56
2022-08-30T13:10:00.738Z,44.44
2022-08-30T13:11:08.666Z,44.11
2022-08-30T13:12:21.832Z,43.99
2022-08-30T13:13:31.814Z,43.66
2022-08-30T13:14:35.862Z,43.62
2022-08-30T13:15:40.175Z,44.03
2022-08-30T13:16:45.284Z,43.95
2022-08-30T13:17:47.321Z,44.30
2022-08-30T13:18:56.836Z,43.98
2022-08-30T13:20:03.952Z,43.77
2022-08-30T13:21:23.166Z,43.70
2022-08-30T13:22:29.152Z,43.49
2022-08-30T13:23:32.915Z,43.57
2022-08-30T13:24:34.913Z,43.54
2022-08-30T13:25:37.943Z,43.61
2022-08-30T13:26:40.123Z,43.25
2022-08-30T13:27:42.357Z,43.44
2022-08-30T13:28:51.887Z,43.52
2022-08-30T13:29:57.138Z,43.62
2022-08-30T13:30:59.341Z,44.08
2022-08-30T13:32:01.813Z,44.02
2022-08-30T13:33:03.979Z,43.95
2022-08-30T13:34:06.261Z,44.16
2022-08-30T13:35:10.112Z,44.50
2022-08-30T13:36:13.802Z,44.40
2022-08-30T13:38:26.759Z,43.84
2022-08-30T13:39:29.136Z,43.65
2022-08-30T13:40:31.733Z,44.08
2022-08-30T13:41:34.718Z,43.86
2022-08-30T13:42:37.379Z,44.03
2022-08-30T13:44:43.631Z,44.12
2022-08-30T13:45:46.468Z,44.01
2022-08-30T13:46:54.591Z,44.22
2022-08-30T13:47:55.304Z,44.04
2022-08-30T13:48:59.366Z,44.21
2022-08-30T13:50:01.717Z,44.20
2022-08-30T13:51:03.782Z,44.26
2022-08-30T13:52:19.928Z,44.19
2022-08-30T13:53:10.921Z,44.23
2022-08-30T13:54:13.824Z,44.02
2022-08-30T13:55:16.290Z,43.78
2022-08-30T13:56:19.150Z,43.40
2022-08-30T13:58:29.601Z,43.40
2022-08-30T13:59:31.734Z,43.24
2022-08-30T14:00:37.740Z,43.28
2022-08-30T14:02:50.111Z,43.42
2022-08-30T14:04:52.952Z,43.34
2022-08-30T14:06:15.843Z,43.54
2022-08-30T14:07:19.905Z,43.45
2022-08-30T14:08:04.647Z,43.29
2022-08-30T14:09:07.277Z,43.63
2022-08-30T14:11:14.290Z,43.57
2022-08-30T14:12:17.003Z,43.63
2022-08-30T14:13:21.128Z,43.37